Time;durP1;ratioP1;P1;durP2;ratioP2;P2;SDS_P1;SDS_P2;PMS_P1;PMS_P2;Temp;Humidity;BMP_temperature;BMP_pressure;BME280_temperature;BME280_humidity;BME280_pressure;Samples;Min_cycle;Max_cycle;Signal;HPM_P1;HPM_P2
2023/05/20 00:00:07;;;;;;;9.13;7.93;;;;;;;;;;5019091;28;20052;-66
2023/05/20 00:02:33;;;;;;;12.18;8.05;;;;;;;;;;5018408;28;20127;-67
2023/05/20 00:04:58;;;;;;;11.40;8.38;;;;;;;;;;5022255;28;20166;-66
2023/05/20 00:07:23;;;;;;;13.77;7.25;;;;;;;;;;5038284;28;20052;-65
2023/05/20 00:09:49;;;;;;;9.02;7.97;;;;;;;;;;5021769;28;20205;-66
2023/05/20 00:12:14;;;;;;;10.57;8.63;;;;;;;;;;5023094;28;20506;-66
2023/05/20 00:14:40;;;;;;;10.52;8.40;;;;;;;;;;5020068;28;20395;-66
2023/05/20 00:17:05;;;;;;;11.15;8.15;;;;;;;;;;5022536;28;20122;-66
2023/05/20 00:19:31;;;;;;;11.27;8.30;;;;;;;;;;5012191;28;20049;-66
2023/05/20 00:21:57;;;;;;;9.48;7.45;;;;;;;;;;5020789;28;20045;-66
2023/05/20 00:24:23;;;;;;;12.32;8.40;;;;;;;;;;5022866;28;20071;-66
2023/05/20 00:26:49;;;;;;;9.32;8.20;;;;;;;;;;5022287;28;20131;-67
2023/05/20 00:29:14;;;;;;;12.02;8.48;;;;;;;;;;5016317;28;20558;-67
2023/05/20 00:31:40;;;;;;;12.65;8.07;;;;;;;;;;5017685;28;20052;-66
2023/05/20 00:34:06;;;;;;;11.80;9.30;;;;;;;;;;5009103;28;20053;-67
2023/05/20 00:36:32;;;;;;;12.73;9.38;;;;;;;;;;5022198;28;20052;-74
2023/05/20 00:38:57;;;;;;;15.60;9.20;;;;;;;;;;4996693;28;20068;-66
2023/05/20 00:41:23;;;;;;;12.75;8.73;;;;;;;;;;5037476;28;20045;-66
2023/05/20 00:43:52;;;;;;;11.77;8.75;;;;;;;;;;5013705;28;20049;-66
2023/05/20 00:46:18;;;;;;;13.55;9.15;;;;;;;;;;5022300;28;20057;-67
2023/05/20 00:48:43;;;;;;;14.75;8.63;;;;;;;;;;5021886;28;20067;-66
2023/05/20 00:51:10;;;;;;;12.60;9.27;;;;;;;;;;5021236;28;20460;-66
2023/05/20 00:53:36;;;;;;;12.90;9.65;;;;;;;;;;5031995;28;20081;-65
2023/05/20 00:56:03;;;;;;;11.40;9.45;;;;;;;;;;5020759;28;20183;-68
2023/05/20 00:58:28;;;;;;;17.50;10.70;;;;;;;;;;5022294;28;20188;-65
2023/05/20 01:00:54;;;;;;;10.93;8.98;;;;;;;;;;5036762;28;20472;-67
2023/05/20 01:03:19;;;;;;;14.20;9.43;;;;;;;;;;5035721;28;20067;-67
2023/05/20 01:05:45;;;;;;;15.63;10.10;;;;;;;;;;5020054;28;20098;-66
2023/05/20 01:08:11;;;;;;;13.88;10.10;;;;;;;;;;5032934;28;20078;-67
2023/05/20 01:10:45;;;;;;;13.40;10.02;;;;;;;;;;5036980;28;20054;-67
2023/05/20 01:13:16;;;;;;;12.55;10.07;;;;;;;;;;5018695;28;20050;-67
2023/05/20 01:15:43;;;;;;;18.63;10.63;;;;;;;;;;5019727;28;20053;-66
2023/05/20 01:18:09;;;;;;;17.13;10.45;;;;;;;;;;5020225;28;20053;-67
2023/05/20 01:20:36;;;;;;;15.98;11.25;;;;;;;;;;5014046;28;20053;-67
2023/05/20 01:23:03;;;;;;;17.48;12.40;;;;;;;;;;5018107;28;20096;-67
2023/05/20 01:25:28;;;;;;;16.88;12.23;;;;;;;;;;5012978;28;20073;-68
2023/05/20 01:27:56;;;;;;;18.17;12.45;;;;;;;;;;5015178;28;20161;-67
2023/05/20 01:30:26;;;;;;;15.95;12.10;;;;;;;;;;4993931;28;20042;-66
2023/05/20 01:32:56;;;;;;;20.65;12.90;;;;;;;;;;5036663;28;20140;-65
2023/05/20 01:35:22;;;;;;;20.45;13.70;;;;;;;;;;5037369;28;20786;-64
2023/05/20 01:37:51;;;;;;;22.50;13.75;;;;;;;;;;5016383;28;20930;-65
2023/05/20 01:40:17;;;;;;;21.05;14.60;;;;;;;;;;5019381;28;20048;-66
2023/05/20 01:42:44;;;;;;;27.50;15.57;;;;;;;;;;5036462;28;20041;-66
2023/05/20 01:45:10;;;;;;;22.48;15.15;;;;;;;;;;5014334;28;20046;-66
2023/05/20 01:47:36;;;;;;;19.85;13.90;;;;;;;;;;5020891;28;20106;-66
2023/05/20 01:50:02;;;;;;;19.10;14.27;;;;;;;;;;5028778;28;20490;-66
2023/05/20 01:52:27;;;;;;;22.27;15.02;;;;;;;;;;5018105;28;20049;-67
2023/05/20 01:54:53;;;;;;;20.52;14.38;;;;;;;;;;5012905;28;20054;-66
2023/05/20 01:57:21;;;;;;;23.52;15.13;;;;;;;;;;5033707;28;20372;-67
2023/05/20 01:59:49;;;;;;;21.83;14.40;;;;;;;;;;5035122;28;20053;-66
2023/05/20 02:02:15;;;;;;;18.73;14.25;;;;;;;;;;5014925;28;20557;-66
2023/05/20 02:04:48;;;;;;;18.17;14.18;;;;;;;;;;5018030;28;20127;-67
2023/05/20 02:07:20;;;;;;;20.65;14.85;;;;;;;;;;5036434;28;20095;-67
2023/05/20 02:09:46;;;;;;;;;;;;;;;;;;5036336;28;20056;-67
2023/05/20 02:12:15;;;;;;;21.23;14.98;;;;;;;;;;5017138;28;19925;-66
2023/05/20 02:14:45;;;;;;;20.05;15.20;;;;;;;;;;5019554;28;20141;-66
2023/05/20 02:17:13;;;;;;;19.42;13.80;;;;;;;;;;5017487;28;20072;-67
2023/05/20 02:19:38;;;;;;;21.77;15.77;;;;;;;;;;5033782;28;20048;-67
2023/05/20 02:22:05;;;;;;;24.33;14.80;;;;;;;;;;5036327;28;20053;-67
2023/05/20 02:24:30;;;;;;;23.92;15.25;;;;;;;;;;5014145;28;20055;-65
2023/05/20 02:26:57;;;;;;;21.95;14.85;;;;;;;;;;5032585;28;20053;-66
2023/05/20 02:29:24;;;;;;;19.42;13.98;;;;;;;;;;5036479;28;20044;-65
2023/05/20 02:31:49;;;;;;;20.50;14.32;;;;;;;;;;5021365;28;20061;-66
2023/05/20 02:34:16;;;;;;;23.95;14.27;;;;;;;;;;5010374;28;20053;-65
2023/05/20 02:36:42;;;;;;;19.60;14.88;;;;;;;;;;5035903;28;20091;-65
2023/05/20 02:39:08;;;;;;;19.67;14.40;;;;;;;;;;5036233;28;20053;-66
2023/05/20 02:41:33;;;;;;;19.15;13.95;;;;;;;;;;5036099;28;20561;-66
2023/05/20 02:43:59;;;;;;;20.80;15.57;;;;;;;;;;5015917;28;20430;-66
2023/05/20 02:46:27;;;;;;;21.42;15.27;;;;;;;;;;5035041;28;20436;-66
2023/05/20 02:48:52;;;;;;;21.60;15.27;;;;;;;;;;5013781;28;20491;-64
2023/05/20 02:51:17;;;;;;;21.67;15.15;;;;;;;;;;5036137;28;20041;-65
2023/05/20 02:53:43;;;;;;;24.42;17.73;;;;;;;;;;5035984;28;20387;-65
2023/05/20 02:56:09;;;;;;;29.15;20.17;;;;;;;;;;5010038;28;20056;-65
2023/05/20 02:58:35;;;;;;;34.22;20.67;;;;;;;;;;5019996;28;20049;-65
2023/05/20 03:01:01;;;;;;;34.88;21.75;;;;;;;;;;5035946;28;20055;-67
2023/05/20 03:03:26;;;;;;;33.47;22.10;;;;;;;;;;5035529;28;20999;-66
2023/05/20 03:05:52;;;;;;;34.22;20.77;;;;;;;;;;5035822;28;20045;-67
2023/05/20 03:08:20;;;;;;;33.70;22.38;;;;;;;;;;5028085;28;20055;-67
2023/05/20 03:10:45;;;;;;;34.75;21.27;;;;;;;;;;5019922;28;20060;-66
2023/05/20 03:13:11;;;;;;;27.63;19.25;;;;;;;;;;5035663;28;20045;-66
2023/05/20 03:15:37;;;;;;;32.17;19.75;;;;;;;;;;5035754;28;21000;-66
2023/05/20 03:18:04;;;;;;;29.45;19.45;;;;;;;;;;4991007;28;21154;-67
2023/05/20 03:20:31;;;;;;;31.35;20.45;;;;;;;;;;5013543;28;20055;-66
2023/05/20 03:22:57;;;;;;;29.65;20.65;;;;;;;;;;5001745;28;20050;-66
2023/05/20 03:25:25;;;;;;;34.80;21.92;;;;;;;;;;5035303;28;20136;-66
2023/05/20 03:27:50;;;;;;;36.17;22.40;;;;;;;;;;5019973;28;20057;-66
2023/05/20 03:30:16;;;;;;;40.03;23.55;;;;;;;;;;5012243;28;20050;-66
2023/05/20 03:32:42;;;;;;;33.22;21.38;;;;;;;;;;5019256;28;20057;-66
2023/05/20 03:35:08;;;;;;;38.47;22.77;;;;;;;;;;5035024;28;20037;-67
2023/05/20 03:37:35;;;;;;;39.22;22.30;;;;;;;;;;5035091;28;20049;-67
2023/05/20 03:40:04;;;;;;;32.92;20.08;;;;;;;;;;4985544;28;20081;-66
2023/05/20 03:42:31;;;;;;;31.05;19.67;;;;;;;;;;5012632;28;20486;-67
2023/05/20 03:44:59;;;;;;;31.65;19.85;;;;;;;;;;5033132;28;20411;-66
2023/05/20 03:47:26;;;;;;;30.92;20.55;;;;;;;;;;5034661;28;20050;-67
2023/05/20 03:49:51;;;;;;;33.92;19.27;;;;;;;;;;5013662;28;20053;-68
2023/05/20 03:52:17;;;;;;;29.77;19.13;;;;;;;;;;5032479;28;20051;-68
2023/05/20 03:54:43;;;;;;;28.02;18.48;;;;;;;;;;5017080;28;20092;-68
2023/05/20 03:57:09;;;;;;;34.15;20.58;;;;;;;;;;5017847;28;20445;-68
2023/05/20 03:59:35;;;;;;;32.13;20.75;;;;;;;;;;5019606;28;20052;-68
2023/05/20 04:02:01;;;;;;;30.30;20.38;;;;;;;;;;5018555;28;20489;-66
2023/05/20 04:04:28;;;;;;;35.03;20.35;;;;;;;;;;5013202;28;20045;-67
2023/05/20 04:06:53;;;;;;;30.50;19.92;;;;;;;;;;5033335;28;20111;-67
2023/05/20 04:09:19;;;;;;;32.60;21.08;;;;;;;;;;5018101;28;20060;-67
2023/05/20 04:11:44;;;;;;;34.15;20.65;;;;;;;;;;5034613;28;20140;-66
2023/05/20 04:14:10;;;;;;;34.80;21.80;;;;;;;;;;5010629;28;20077;-66
2023/05/20 04:16:36;;;;;;;34.92;20.27;;;;;;;;;;5033709;28;20053;-67
2023/05/20 04:19:02;;;;;;;35.67;19.85;;;;;;;;;;5016469;28;20052;-68
2023/05/20 04:21:28;;;;;;;33.13;20.67;;;;;;;;;;5034498;28;20041;-67
2023/05/20 04:23:53;;;;;;;32.13;19.75;;;;;;;;;;5010576;28;20049;-67
2023/05/20 04:26:20;;;;;;;31.67;18.50;;;;;;;;;;5018747;28;20710;-67
2023/05/20 04:28:48;;;;;;;31.52;20.75;;;;;;;;;;5018904;28;20088;-67
2023/05/20 04:31:14;;;;;;;30.73;20.52;;;;;;;;;;5011206;28;20042;-67
2023/05/20 04:33:41;;;;;;;28.13;19.10;;;;;;;;;;5016468;28;20053;-68
2023/05/20 04:36:10;;;;;;;30.92;19.83;;;;;;;;;;5012254;28;20792;-67
2023/05/20 04:38:37;;;;;;;38.47;19.08;;;;;;;;;;5016625;28;20164;-67
2023/05/20 04:41:03;;;;;;;30.67;18.15;;;;;;;;;;5034427;28;20068;-67
2023/05/20 04:43:29;;;;;;;29.63;17.63;;;;;;;;;;5018872;28;20049;-69
2023/05/20 04:45:55;;;;;;;30.70;18.88;;;;;;;;;;5016657;28;20056;-68
2023/05/20 04:48:21;;;;;;;32.50;20.40;;;;;;;;;;5017672;28;20056;-67
2023/05/20 04:50:53;;;;;;;28.30;18.70;;;;;;;;;;5019744;28;20045;-67
2023/05/20 04:53:20;;;;;;;37.58;21.52;;;;;;;;;;5037872;28;20049;-67
2023/05/20 04:55:46;;;;;;;38.83;22.13;;;;;;;;;;5018355;28;20045;-67
2023/05/20 04:58:16;;;;;;;36.70;20.85;;;;;;;;;;4983776;28;20056;-68
2023/05/20 05:00:45;;;;;;;35.03;20.63;;;;;;;;;;5017832;28;20045;-68
2023/05/20 05:03:14;;;;;;;29.50;18.92;;;;;;;;;;5022056;28;20966;-67
2023/05/20 05:05:41;;;;;;;28.17;18.63;;;;;;;;;;5037218;28;20091;-68
2023/05/20 05:08:08;;;;;;;29.50;19.73;;;;;;;;;;5036661;28;20522;-68
2023/05/20 05:10:39;;;;;;;27.23;19.17;;;;;;;;;;5013909;28;20088;-67
2023/05/20 05:13:04;;;;;;;29.92;18.73;;;;;;;;;;5016613;28;20056;-68
2023/05/20 05:15:30;;;;;;;27.80;18.27;;;;;;;;;;5020258;28;20053;-68
2023/05/20 05:17:56;;;;;;;27.00;17.92;;;;;;;;;;5037492;28;20037;-68
2023/05/20 05:20:22;;;;;;;24.65;16.27;;;;;;;;;;5036827;28;20045;-67
2023/05/20 05:22:49;;;;;;;23.95;16.25;;;;;;;;;;5020147;28;20124;-68
2023/05/20 05:25:16;;;;;;;22.33;15.07;;;;;;;;;;5037118;28;20052;-68
2023/05/20 05:27:43;;;;;;;19.55;12.98;;;;;;;;;;5020222;28;20057;-68
2023/05/20 05:30:09;;;;;;;17.38;13.13;;;;;;;;;;5038509;28;20496;-68
2023/05/20 05:32:39;;;;;;;14.75;11.07;;;;;;;;;;5021013;28;20073;-70
2023/05/20 05:35:05;;;;;;;14.70;9.63;;;;;;;;;;5021940;28;20514;-68
2023/05/20 05:37:30;;;;;;;12.20;9.07;;;;;;;;;;5022662;28;20079;-69
2023/05/20 05:39:56;;;;;;;14.00;8.57;;;;;;;;;;5027717;28;20128;-68
2023/05/20 05:42:22;;;;;;;11.90;9.05;;;;;;;;;;5027359;28;20132;-68
2023/05/20 05:44:48;;;;;;;11.00;8.65;;;;;;;;;;5022897;28;20395;-68
2023/05/20 05:47:15;;;;;;;12.88;8.85;;;;;;;;;;5024338;28;20135;-68
2023/05/20 05:49:40;;;;;;;12.70;8.20;;;;;;;;;;5022812;28;20461;-68
2023/05/20 05:52:06;;;;;;;10.23;8.27;;;;;;;;;;5027840;28;20072;-69
2023/05/20 05:54:32;;;;;;;13.35;9.00;;;;;;;;;;5017053;28;20045;-68
2023/05/20 05:56:57;;;;;;;13.95;9.73;;;;;;;;;;5039021;28;20502;-69
2023/05/20 05:59:25;;;;;;;12.07;9.40;;;;;;;;;;5021760;28;20045;-68
2023/05/20 06:01:51;;;;;;;12.85;8.32;;;;;;;;;;5013952;28;20049;-69
2023/05/20 06:04:17;;;;;;;9.43;7.75;;;;;;;;;;5014824;28;20037;-68
2023/05/20 06:06:42;;;;;;;10.02;8.98;;;;;;;;;;5035947;28;20049;-68
2023/05/20 06:09:08;;;;;;;12.77;10.23;;;;;;;;;;5036586;28;20076;-68
2023/05/20 06:11:34;;;;;;;12.07;9.27;;;;;;;;;;5020484;28;20894;-68
2023/05/20 06:14:00;;;;;;;13.43;9.77;;;;;;;;;;5011134;28;20049;-69
2023/05/20 06:16:26;;;;;;;13.27;9.63;;;;;;;;;;5018107;28;20041;-69
2023/05/20 06:18:55;;;;;;;11.20;8.70;;;;;;;;;;5029021;28;20044;-70
2023/05/20 06:21:22;;;;;;;8.95;7.78;;;;;;;;;;5031274;28;20195;-69
2023/05/20 06:23:48;;;;;;;8.57;7.03;;;;;;;;;;5015004;28;20037;-69
2023/05/20 06:26:14;;;;;;;8.55;6.70;;;;;;;;;;5030139;28;20355;-69
2023/05/20 06:28:40;;;;;;;8.57;7.30;;;;;;;;;;5025809;28;20053;-69
2023/05/20 06:31:07;;;;;;;8.65;7.10;;;;;;;;;;5016363;28;20340;-69
2023/05/20 06:33:34;;;;;;;8.13;7.22;;;;;;;;;;5028589;28;20049;-69
2023/05/20 06:36:04;;;;;;;7.60;6.47;;;;;;;;;;5025698;28;20045;-69
2023/05/20 06:38:30;;;;;;;10.77;6.93;;;;;;;;;;5013267;28;20045;-69
2023/05/20 06:40:55;;;;;;;8.32;6.45;;;;;;;;;;5021665;28;20049;-69
2023/05/20 06:43:20;;;;;;;9.48;6.78;;;;;;;;;;5021059;28;20045;-69
2023/05/20 06:45:53;;;;;;;10.20;6.82;;;;;;;;;;5017579;28;20045;-68
2023/05/20 06:48:23;;;;;;;6.78;5.97;;;;;;;;;;5018175;28;20037;-69
2023/05/20 06:50:49;;;;;;;10.75;6.82;;;;;;;;;;5014413;28;20482;-68
2023/05/20 06:53:14;;;;;;;7.82;6.03;;;;;;;;;;5039814;28;20115;-68
2023/05/20 06:55:40;;;;;;;7.53;6.32;;;;;;;;;;5023711;28;20045;-69
2023/05/20 06:58:06;;;;;;;7.53;6.03;;;;;;;;;;5018728;28;20156;-69
2023/05/20 07:00:31;;;;;;;10.30;6.18;;;;;;;;;;5020909;28;20092;-68
2023/05/20 07:02:57;;;;;;;10.27;6.20;;;;;;;;;;5024378;28;20056;-69
2023/05/20 07:05:23;;;;;;;8.27;6.82;;;;;;;;;;5023828;28;20056;-68
2023/05/20 07:07:49;;;;;;;8.10;6.85;;;;;;;;;;5040596;28;20080;-69
2023/05/20 07:10:14;;;;;;;7.82;6.85;;;;;;;;;;5024596;28;20053;-68
2023/05/20 07:12:41;;;;;;;8.00;6.55;;;;;;;;;;5017533;28;20053;-69
2023/05/20 07:15:07;;;;;;;10.90;6.78;;;;;;;;;;5012323;28;20052;-69
2023/05/20 07:17:33;;;;;;;9.30;6.65;;;;;;;;;;5034468;28;20049;-68
2023/05/20 07:19:58;;;;;;;7.45;6.45;;;;;;;;;;5023026;28;20056;-69
2023/05/20 07:22:25;;;;;;;10.15;6.63;;;;;;;;;;5026569;28;20041;-69
2023/05/20 07:24:55;;;;;;;;;;;;;;;;;;5024445;28;20050;-69
2023/05/20 07:27:21;;;;;;;7.65;5.53;;;;;;;;;;5038502;28;19921;-69
2023/05/20 07:29:46;;;;;;;8.15;6.00;;;;;;;;;;5020919;28;20092;-69
2023/05/20 07:32:12;;;;;;;6.05;5.05;;;;;;;;;;5016234;28;20152;-68
2023/05/20 07:34:37;;;;;;;8.20;5.03;;;;;;;;;;5020519;28;20526;-69
2023/05/20 07:37:03;;;;;;;6.90;5.20;;;;;;;;;;5017592;28;20112;-69
2023/05/20 07:39:28;;;;;;;8.38;5.50;;;;;;;;;;5022733;28;20046;-68
2023/05/20 07:41:54;;;;;;;6.78;5.28;;;;;;;;;;5015646;28;20049;-69
2023/05/20 07:44:21;;;;;;;5.38;4.88;;;;;;;;;;5014146;28;20049;-69
2023/05/20 07:46:48;;;;;;;6.90;5.55;;;;;;;;;;5031970;28;20053;-68
2023/05/20 07:49:14;;;;;;;5.60;5.10;;;;;;;;;;5012605;28;20115;-68
2023/05/20 07:51:40;;;;;;;5.68;4.53;;;;;;;;;;5013203;28;20449;-68
2023/05/20 07:54:05;;;;;;;8.00;5.00;;;;;;;;;;5011484;28;20160;-68
2023/05/20 07:56:32;;;;;;;7.10;5.10;;;;;;;;;;5035050;28;20295;-68
2023/05/20 07:58:58;;;;;;;7.07;5.05;;;;;;;;;;5036335;28;20049;-69
2023/05/20 08:01:28;;;;;;;6.53;5.60;;;;;;;;;;5021723;28;20460;-68
2023/05/20 08:03:54;;;;;;;6.25;5.05;;;;;;;;;;5016979;28;20137;-68
2023/05/20 08:06:24;;;;;;;5.47;4.88;;;;;;;;;;5033479;28;20096;-68
2023/05/20 08:08:53;;;;;;;5.47;4.70;;;;;;;;;;5008170;28;20065;-70
2023/05/20 08:11:23;;;;;;;5.22;4.72;;;;;;;;;;5025599;28;20042;-68
2023/05/20 08:13:48;;;;;;;5.90;4.88;;;;;;;;;;5012448;28;20057;-67
2023/05/20 08:16:15;;;;;;;10.10;4.88;;;;;;;;;;5001672;28;20757;-67
2023/05/20 08:18:44;;;;;;;5.38;4.80;;;;;;;;;;4996598;28;20086;-69
2023/05/20 08:21:11;;;;;;;4.45;4.00;;;;;;;;;;4989473;28;20169;-68
2023/05/20 08:23:36;;;;;;;6.50;4.38;;;;;;;;;;5013310;28;20125;-68
2023/05/20 08:26:02;;;;;;;5.45;4.20;;;;;;;;;;4999683;28;20103;-68
2023/05/20 08:28:29;;;;;;;4.95;4.05;;;;;;;;;;5017009;28;20136;-68
2023/05/20 08:30:59;;;;;;;4.65;4.03;;;;;;;;;;5013331;28;20120;-69
2023/05/20 08:33:25;;;;;;;4.32;3.92;;;;;;;;;;5015037;28;20038;-68
2023/05/20 08:35:51;;;;;;;6.13;4.38;;;;;;;;;;4997766;28;20040;-69
2023/05/20 08:38:16;;;;;;;5.65;3.80;;;;;;;;;;4997276;28;20551;-68
2023/05/20 08:40:42;;;;;;;4.95;4.05;;;;;;;;;;4991134;28;20046;-67
2023/05/20 08:43:08;;;;;;;3.67;3.20;;;;;;;;;;4995631;28;20106;-67
2023/05/20 08:45:37;;;;;;;5.05;3.50;;;;;;;;;;4994265;28;20057;-67
2023/05/20 08:48:06;;;;;;;8.65;3.53;;;;;;;;;;4997551;28;20038;-68
2023/05/20 08:50:32;;;;;;;3.60;3.10;;;;;;;;;;4992819;28;20058;-68
2023/05/20 08:52:58;;;;;;;113.60;10.50;;;;;;;;;;4992753;28;20134;-66
2023/05/20 08:55:24;;;;;;;5.53;3.03;;;;;;;;;;5001896;28;20045;-67
2023/05/20 08:57:50;;;;;;;5.68;3.47;;;;;;;;;;5002740;28;20050;-68
2023/05/20 09:00:17;;;;;;;3.42;3.10;;;;;;;;;;4995629;28;20116;-67
2023/05/20 09:02:44;;;;;;;6.43;3.50;;;;;;;;;;4995815;28;20403;-68
2023/05/20 09:05:10;;;;;;;3.45;3.13;;;;;;;;;;5000519;28;20041;-67
2023/05/20 09:07:36;;;;;;;5.53;3.70;;;;;;;;;;4995442;28;20057;-67
2023/05/20 09:10:02;;;;;;;3.38;3.08;;;;;;;;;;5001085;28;20057;-68
2023/05/20 09:12:28;;;;;;;5.75;3.40;;;;;;;;;;5002080;28;20046;-68
2023/05/20 09:14:53;;;;;;;3.35;3.05;;;;;;;;;;5001202;28;20477;-68
2023/05/20 09:17:21;;;;;;;5.97;3.20;;;;;;;;;;4990139;28;20056;-67
2023/05/20 09:19:50;;;;;;;5.78;3.10;;;;;;;;;;4997264;28;20041;-66
2023/05/20 09:22:23;;;;;;;3.78;2.75;;;;;;;;;;4991532;28;20568;-67
2023/05/20 09:24:49;;;;;;;4.85;3.60;;;;;;;;;;5000393;28;20204;-68
2023/05/20 09:27:15;;;;;;;6.38;3.30;;;;;;;;;;4998654;28;20064;-67
2023/05/20 09:29:42;;;;;;;4.78;3.35;;;;;;;;;;5002020;28;20050;-67
2023/05/20 09:32:11;;;;;;;3.85;3.00;;;;;;;;;;4998971;28;20089;-67
2023/05/20 09:34:37;;;;;;;4.65;2.55;;;;;;;;;;5000474;28;20410;-70
2023/05/20 09:37:06;;;;;;;4.32;3.00;;;;;;;;;;4996773;28;20103;-67
2023/05/20 09:39:35;;;;;;;4.13;3.00;;;;;;;;;;4992998;28;20052;-65
2023/05/20 09:42:11;;;;;;;5.07;3.50;;;;;;;;;;4998753;28;20042;-66
2023/05/20 09:44:38;;;;;;;3.53;3.22;;;;;;;;;;4988767;28;20050;-68
2023/05/20 09:47:06;;;;;;;7.93;3.67;;;;;;;;;;4998039;28;20137;-66
2023/05/20 09:49:33;;;;;;;5.32;3.65;;;;;;;;;;4999137;28;20360;-66
2023/05/20 09:52:00;;;;;;;12.88;4.65;;;;;;;;;;4995644;28;20045;-65
2023/05/20 09:54:27;;;;;;;10.00;4.30;;;;;;;;;;4991895;28;20049;-65
2023/05/20 09:56:53;;;;;;;4.78;3.50;;;;;;;;;;4998735;28;20514;-66
2023/05/20 09:59:20;;;;;;;5.15;3.75;;;;;;;;;;4995648;28;20141;-66
2023/05/20 10:01:51;;;;;;;3.78;2.75;;;;;;;;;;4998774;28;20099;-66
2023/05/20 10:04:18;;;;;;;5.72;2.97;;;;;;;;;;4990816;28;20468;-66
2023/05/20 10:07:05;;;;;;;3.08;2.88;;;;;;;;;;4998531;28;20061;-66
2023/05/20 10:09:33;;;;;;;3.25;2.92;;;;;;;;;;4985313;28;20041;-66
2023/05/20 10:12:27;;;;;;;47.40;12.48;;;;;;;;;;4993234;28;20054;-66
2023/05/20 10:15:02;;;;;;;6.45;3.72;;;;;;;;;;4996378;28;20177;-65
2023/05/20 10:17:41;;;;;;;9.75;3.78;;;;;;;;;;4994373;28;20076;-67
2023/05/20 10:20:13;;;;;;;6.15;2.75;;;;;;;;;;4996621;28;20562;-68
2023/05/20 10:22:44;;;;;;;2.63;2.42;;;;;;;;;;5016245;28;20042;-68
2023/05/20 10:25:22;;;;;;;3.67;2.47;;;;;;;;;;4999397;28;20096;-67
2023/05/20 10:27:47;;;;;;;3.42;2.67;;;;;;;;;;4995065;28;20056;-67
2023/05/20 10:30:21;;;;;;;2.83;2.33;;;;;;;;;;5000837;28;20069;-67
2023/05/20 10:32:55;;;;;;;5.13;2.10;;;;;;;;;;4998780;28;20656;-68
2023/05/20 10:35:27;;;;;;;2.53;2.33;;;;;;;;;;5000968;28;20072;-67
2023/05/20 10:38:05;;;;;;;2.90;2.45;;;;;;;;;;4996101;28;20053;-67
2023/05/20 10:40:30;;;;;;;4.80;2.47;;;;;;;;;;5000752;28;20443;-67
2023/05/20 10:42:59;;;;;;;2.50;2.30;;;;;;;;;;5003263;28;22939;-67
2023/05/20 10:45:28;;;;;;;3.17;2.42;;;;;;;;;;5018073;28;20045;-66
2023/05/20 10:47:56;;;;;;;5.38;2.60;;;;;;;;;;5019612;28;20057;-66
2023/05/20 10:50:33;;;;;;;2.67;2.47;;;;;;;;;;5012598;28;20037;-66
2023/05/20 10:53:06;;;;;;;2.85;2.58;;;;;;;;;;5020232;28;20537;-66
2023/05/20 10:55:37;;;;;;;2.53;2.33;;;;;;;;;;5018835;28;20099;-66
2023/05/20 10:58:03;;;;;;;4.18;2.30;;;;;;;;;;5010705;28;20092;-66
2023/05/20 11:00:29;;;;;;;5.47;2.50;;;;;;;;;;5013499;28;20047;-66
2023/05/20 11:02:55;;;;;;;4.90;2.60;;;;;;;;;;5010644;28;20413;-68
2023/05/20 11:05:21;;;;;;;2.67;2.40;;;;;;;;;;5011237;28;20053;-66
2023/05/20 11:07:46;;;;;;;4.03;2.45;;;;;;;;;;5017905;28;20063;-68
2023/05/20 11:10:12;;;;;;;2.92;2.70;;;;;;;;;;5013416;28;20077;-68
2023/05/20 11:12:38;;;;;;;3.50;2.20;;;;;;;;;;5008972;28;20063;-70
2023/05/20 11:15:04;;;;;;;5.15;2.15;;;;;;;;;;5013770;28;20071;-67
2023/05/20 11:17:30;;;;;;;2.75;2.25;;;;;;;;;;5016891;28;20060;-67
2023/05/20 11:19:55;;;;;;;4.32;2.05;;;;;;;;;;5014044;28;20050;-67
2023/05/20 11:22:21;;;;;;;4.88;2.67;;;;;;;;;;5016771;28;20518;-69
2023/05/20 11:24:46;;;;;;;2.47;2.25;;;;;;;;;;5013977;28;20049;-67
2023/05/20 11:27:12;;;;;;;5.00;2.85;;;;;;;;;;5017460;28;20075;-66
2023/05/20 11:29:39;;;;;;;2.78;2.42;;;;;;;;;;5012304;28;20137;-67
2023/05/20 11:32:06;;;;;;;2.63;2.42;;;;;;;;;;5006683;28;20074;-67
2023/05/20 11:34:33;;;;;;;6.60;2.70;;;;;;;;;;5018703;28;20045;-68
2023/05/20 11:36:59;;;;;;;3.40;2.70;;;;;;;;;;5019372;28;20659;-67
2023/05/20 11:39:28;;;;;;;3.75;2.38;;;;;;;;;;5019159;28;20059;-68
2023/05/20 11:41:53;;;;;;;6.38;2.38;;;;;;;;;;5018080;28;20098;-68
2023/05/20 11:44:19;;;;;;;5.13;2.90;;;;;;;;;;5010098;28;20049;-68
2023/05/20 11:46:47;;;;;;;3.10;2.80;;;;;;;;;;5014599;28;20068;-67
2023/05/20 11:49:13;;;;;;;4.03;2.95;;;;;;;;;;5010362;28;20042;-68
2023/05/20 11:51:39;;;;;;;3.20;2.90;;;;;;;;;;5004491;28;20050;-67
2023/05/20 11:54:06;;;;;;;3.40;2.85;;;;;;;;;;5012794;28;20071;-68
2023/05/20 11:56:33;;;;;;;5.63;2.70;;;;;;;;;;5013686;28;20041;-68
2023/05/20 11:59:00;;;;;;;4.97;3.53;;;;;;;;;;5010372;28;20061;-68
2023/05/20 12:01:29;;;;;;;6.78;3.53;;;;;;;;;;5021874;28;20045;-68
2023/05/20 12:03:54;;;;;;;6.43;4.70;;;;;;;;;;5023719;28;20049;-68
2023/05/20 12:06:20;;;;;;;3.42;3.10;;;;;;;;;;5015613;28;20087;-68
2023/05/20 12:08:46;;;;;;;4.22;3.45;;;;;;;;;;5021379;28;20049;-69
2023/05/20 12:11:12;;;;;;;4.13;3.45;;;;;;;;;;5022344;28;20052;-69
2023/05/20 12:13:39;;;;;;;5.13;3.55;;;;;;;;;;5019503;28;20041;-68
2023/05/20 12:16:04;;;;;;;5.93;3.30;;;;;;;;;;5022630;28;20103;-69
2023/05/20 12:18:31;;;;;;;3.65;3.25;;;;;;;;;;5007891;28;20034;-68
2023/05/20 12:20:57;;;;;;;4.72;3.60;;;;;;;;;;5023166;28;20140;-68
2023/05/20 12:23:23;;;;;;;5.78;4.35;;;;;;;;;;5022942;28;20140;-68
2023/05/20 12:25:48;;;;;;;8.00;4.85;;;;;;;;;;5021727;28;20045;-68
2023/05/20 12:28:15;;;;;;;7.63;4.63;;;;;;;;;;5015853;28;20423;-68
2023/05/20 12:30:41;;;;;;;7.30;4.90;;;;;;;;;;5022691;28;20541;-68
2023/05/20 12:33:07;;;;;;;5.95;5.00;;;;;;;;;;5020453;28;20570;-68
2023/05/20 12:35:40;;;;;;;12.80;4.82;;;;;;;;;;5023249;28;20071;-69
2023/05/20 12:38:06;;;;;;;4.65;4.20;;;;;;;;;;5023622;28;20088;-68
2023/05/20 12:40:32;;;;;;;5.50;4.45;;;;;;;;;;5037362;28;20053;-67
2023/05/20 12:43:00;;;;;;;6.05;4.43;;;;;;;;;;5022712;28;20071;-69
2023/05/20 12:45:25;;;;;;;6.53;5.32;;;;;;;;;;5022576;28;20057;-68
2023/05/20 12:47:51;;;;;;;7.28;4.57;;;;;;;;;;5022623;28;20052;-69
2023/05/20 12:50:16;;;;;;;5.13;4.63;;;;;;;;;;5014916;28;20654;-68
2023/05/20 12:52:42;;;;;;;6.20;4.32;;;;;;;;;;5021807;28;20057;-69
2023/05/20 12:55:12;;;;;;;6.32;4.55;;;;;;;;;;5023073;28;20037;-68
2023/05/20 12:57:43;;;;;;;6.32;5.10;;;;;;;;;;5023118;28;20475;-68
2023/05/20 13:00:09;;;;;;;7.63;5.23;;;;;;;;;;5017242;28;20042;-68
2023/05/20 13:02:36;;;;;;;5.80;4.85;;;;;;;;;;5014675;28;20487;-69
2023/05/20 13:05:01;;;;;;;9.38;5.47;;;;;;;;;;5022078;28;20235;-68
2023/05/20 13:07:26;;;;;;;6.45;4.85;;;;;;;;;;5022451;28;20095;-69
2023/05/20 13:09:52;;;;;;;7.78;5.13;;;;;;;;;;5023067;28;20190;-68
2023/05/20 13:12:18;;;;;;;5.25;4.72;;;;;;;;;;5014627;28;20064;-67
2023/05/20 13:14:43;;;;;;;7.18;4.80;;;;;;;;;;5008752;28;20057;-69
2023/05/20 13:17:10;;;;;;;9.65;5.18;;;;;;;;;;5022259;28;20052;-68
2023/05/20 13:19:36;;;;;;;9.52;5.57;;;;;;;;;;5022609;28;20049;-68
2023/05/20 13:22:02;;;;;;;6.80;5.13;;;;;;;;;;5022693;28;20053;-67
2023/05/20 13:24:27;;;;;;;7.28;5.10;;;;;;;;;;5021177;28;20056;-68
2023/05/20 13:26:53;;;;;;;5.63;5.03;;;;;;;;;;5021971;28;20057;-67
2023/05/20 13:29:18;;;;;;;7.13;4.70;;;;;;;;;;5022314;28;20141;-68
2023/05/20 13:31:46;;;;;;;6.38;5.05;;;;;;;;;;5022314;28;20525;-70
2023/05/20 13:34:11;;;;;;;5.88;4.95;;;;;;;;;;5014277;28;20104;-69
2023/05/20 13:36:37;;;;;;;7.60;5.28;;;;;;;;;;5022212;28;20045;-68
2023/05/20 13:39:02;;;;;;;5.78;4.68;;;;;;;;;;5022012;28;20099;-70
2023/05/20 13:41:29;;;;;;;6.75;5.00;;;;;;;;;;5022113;28;20103;-68
2023/05/20 13:43:55;;;;;;;7.85;5.32;;;;;;;;;;5037238;28;20064;-69
2023/05/20 13:46:20;;;;;;;8.15;5.28;;;;;;;;;;5020985;28;20045;-69
2023/05/20 13:48:46;;;;;;;7.35;5.50;;;;;;;;;;5021554;28;20540;-70
2023/05/20 13:51:11;;;;;;;8.25;6.00;;;;;;;;;;5022134;28;20049;-69
2023/05/20 13:53:38;;;;;;;7.90;5.40;;;;;;;;;;5020034;28;20171;-70
2023/05/20 13:56:04;;;;;;;13.65;5.68;;;;;;;;;;5013661;28;20140;-68
2023/05/20 13:58:29;;;;;;;8.32;5.65;;;;;;;;;;5021467;28;20040;-68
2023/05/20 14:00:55;;;;;;;5.85;5.13;;;;;;;;;;5019769;28;20658;-68
2023/05/20 14:03:21;;;;;;;9.10;6.03;;;;;;;;;;5020004;28;20049;-69
2023/05/20 14:05:46;;;;;;;6.45;5.47;;;;;;;;;;5021973;28;20383;-69
2023/05/20 14:08:12;;;;;;;7.13;5.63;;;;;;;;;;5035734;28;20049;-69
2023/05/20 14:10:37;;;;;;;6.97;5.15;;;;;;;;;;5021831;28;20053;-70
2023/05/20 14:13:03;;;;;;;7.47;5.80;;;;;;;;;;5020817;28;20064;-69
2023/05/20 14:15:29;;;;;;;6.40;5.28;;;;;;;;;;5021504;28;20045;-68
2023/05/20 14:17:57;;;;;;;7.63;5.30;;;;;;;;;;5020806;28;20495;-69
2023/05/20 14:20:24;;;;;;;5.47;4.82;;;;;;;;;;5021368;28;20064;-68
2023/05/20 14:22:50;;;;;;;6.32;5.00;;;;;;;;;;5018706;28;20148;-67
2023/05/20 14:25:16;;;;;;;7.10;6.05;;;;;;;;;;5020107;28;20085;-68
2023/05/20 14:27:41;;;;;;;6.57;5.18;;;;;;;;;;5021128;28;20534;-68
2023/05/20 14:30:07;;;;;;;7.43;5.20;;;;;;;;;;5013658;28;20087;-67